Time;durP1;ratioP1;P1;durP2;ratioP2;P2;SDS_P1;SDS_P2;PMS_P1;PMS_P2;Temp;Humidity;BMP_temperature;BMP_pressure;BME280_temperature;BME280_humidity;BME280_pressure;Samples;Min_cycle;Max_cycle;Signal;HPM_P1;HPM_P2
2022/03/04 00:00:04;;;;;;;;;;;8.10;41.50;;;;;;5037019;28;20331;-62
2022/03/04 00:02:29;;;;;;;;;;;8.20;41.70;;;;;;5036656;28;19915;-62
2022/03/04 00:04:55;;;;;;;;;;;8.30;41.90;;;;;;5035797;28;19909;-62
2022/03/04 00:07:20;;;;;;;;;;;8.40;41.60;;;;;;5037170;28;19913;-61
2022/03/04 00:09:46;;;;;;;;;;;8.50;40.50;;;;;;5037345;28;19913;-62
2022/03/04 00:12:12;;;;;;;;;;;8.50;40.60;;;;;;5039817;28;19909;-62
2022/03/04 00:14:38;;;;;;;;;;;8.50;40.80;;;;;;5039979;28;19921;-62
2022/03/04 00:17:04;;;;;;;;;;;8.30;39.90;;;;;;5038973;28;19913;-62
2022/03/04 00:19:29;;;;;;;;;;;8.30;40.30;;;;;;5038849;28;19923;-62
2022/03/04 00:21:55;;;;;;;;;;;8.40;40.00;;;;;;5038218;28;20273;-62
2022/03/04 00:24:21;;;;;;;;;;;8.40;39.90;;;;;;5037457;28;19949;-62
2022/03/04 00:26:47;;;;;;;;;;;8.50;39.80;;;;;;5036631;28;19909;-62
2022/03/04 00:29:13;;;;;;;;;;;8.40;39.50;;;;;;5036348;28;19963;-61
2022/03/04 00:31:39;;;;;;;;;;;8.40;39.50;;;;;;5036317;28;19963;-62
2022/03/04 00:34:07;;;;;;;;;;;8.40;39.50;;;;;;5036542;28;20323;-62
2022/03/04 00:36:37;;;;;;;;;;;8.40;39.70;;;;;;5036065;28;19924;-62
2022/03/04 00:39:04;;;;;;;;;;;8.30;40.00;;;;;;5036592;28;20043;-62
2022/03/04 00:41:30;;;;;;;;;;;8.20;40.10;;;;;;5036093;28;19909;-62
2022/03/04 00:43:55;;;;;;;;;;;8.20;39.60;;;;;;5036306;28;19962;-61
2022/03/04 00:46:28;;;;;;;;;;;8.20;39.40;;;;;;5036268;28;19916;-62
2022/03/04 00:48:54;;;;;;;;;;;8.20;38.70;;;;;;5035946;28;19916;-61
2022/03/04 00:51:20;;;;;;;;;;;8.20;38.80;;;;;;5036054;28;19913;-67
2022/03/04 00:53:45;;;;;;;;;;;8.20;38.70;;;;;;5036290;28;19972;-62
2022/03/04 00:56:12;;;;;;;;;;;8.20;38.00;;;;;;5035651;28;19972;-62
2022/03/04 00:58:38;;;;;;;;;;;8.20;37.60;;;;;;5035523;28;20023;-61
2022/03/04 01:01:04;;;;;;;;;;;8.20;37.50;;;;;;5035669;28;19915;-62
2022/03/04 01:03:30;;;;;;;;;;;8.20;37.30;;;;;;5035478;28;20016;-62
2022/03/04 01:05:55;;;;;;;;;;;8.10;37.30;;;;;;5035693;28;19913;-62
2022/03/04 01:08:21;;;;;;;;;;;8.10;37.30;;;;;;5036148;28;19909;-62
2022/03/04 01:10:47;;;;;;;;;;;8.10;37.30;;;;;;5035929;28;20325;-62
2022/03/04 01:13:13;;;;;;;;;;;8.00;36.90;;;;;;5017940;28;20368;-62
2022/03/04 01:15:39;;;;;;;;;;;8.10;36.60;;;;;;5035086;28;19924;-62
2022/03/04 01:18:04;;;;;;;;;;;8.10;36.40;;;;;;5035298;28;19917;-62
2022/03/04 01:20:31;;;;;;;;;;;8.00;36.60;;;;;;5035178;28;19909;-62
2022/03/04 01:22:59;;;;;;;;;;;8.10;36.60;;;;;;5035282;28;19945;-61
2022/03/04 01:25:25;;;;;;;;;;;8.10;35.90;;;;;;5035110;28;19909;-61
2022/03/04 01:27:51;;;;;;;;;;;8.20;36.10;;;;;;5035152;28;19920;-61
2022/03/04 01:30:18;;;;;;;;;;;8.20;35.70;;;;;;5035278;28;19963;-62
2022/03/04 01:32:44;;;;;;;;;;;8.10;35.50;;;;;;5035482;28;20337;-62
2022/03/04 01:35:10;;;;;;;;;;;8.10;35.50;;;;;;5035551;28;19918;-67
2022/03/04 01:37:35;;;;;;;;;;;8.10;35.50;;;;;;5035040;28;20365;-62
2022/03/04 01:40:03;;;;;;;;;;;8.00;35.40;;;;;;5035295;28;20001;-61
2022/03/04 01:42:28;;;;;;;;;;;8.10;35.30;;;;;;5034525;28;19909;-61
2022/03/04 01:44:54;;;;;;;;;;;8.00;35.30;;;;;;5034813;28;20337;-67
2022/03/04 01:47:19;;;;;;;;;;;8.00;35.30;;;;;;5034767;28;19909;-61
2022/03/04 01:49:45;;;;;;;;;;;8.00;35.30;;;;;;5035251;28;19913;-62
2022/03/04 01:52:11;;;;;;;;;;;7.90;35.10;;;;;;5035470;28;19913;-61
2022/03/04 01:54:36;;;;;;;;;;;8.00;34.90;;;;;;5035478;28;20330;-62
2022/03/04 01:57:02;;;;;;;;;;;7.90;34.60;;;;;;5035467;28;20030;-62
2022/03/04 01:59:28;;;;;;;;;;;7.90;35.00;;;;;;5035125;28;19916;-63
2022/03/04 02:01:54;;;;;;;;;;;7.90;34.90;;;;;;5035268;28;19909;-62
2022/03/04 02:04:23;;;;;;;;;;;7.90;34.70;;;;;;5035439;28;19909;-62
2022/03/04 02:06:48;;;;;;;;;;;8.00;34.60;;;;;;5034974;28;20008;-67
2022/03/04 02:09:14;;;;;;;;;;;8.00;34.80;;;;;;5034889;28;20380;-62
2022/03/04 02:11:43;;;;;;;;;;;7.80;34.60;;;;;;5034977;28;19909;-62
2022/03/04 02:14:09;;;;;;;;;;;7.90;34.90;;;;;;5034702;28;20313;-62
2022/03/04 02:16:40;;;;;;;;;;;8.00;34.70;;;;;;5034474;28;19975;-64
2022/03/04 02:19:05;;;;;;;;;;;7.90;34.50;;;;;;5034069;28;19921;-61
2022/03/04 02:21:32;;;;;;;;;;;7.90;34.40;;;;;;5034456;28;19909;-62
2022/03/04 02:23:57;;;;;;;;;;;7.90;34.40;;;;;;5016799;28;20001;-66
2022/03/04 02:26:23;;;;;;;;;;;7.90;34.50;;;;;;5033767;28;20008;-61
2022/03/04 02:28:50;;;;;;;;;;;7.90;34.30;;;;;;5016364;28;19951;-67
2022/03/04 02:31:20;;;;;;;;;;;7.90;34.30;;;;;;5034024;28;20273;-62
2022/03/04 02:33:46;;;;;;;;;;;7.80;34.30;;;;;;5034143;28;19909;-62
2022/03/04 02:36:11;;;;;;;;;;;7.90;34.50;;;;;;5033926;28;20292;-67
2022/03/04 02:38:37;;;;;;;;;;;7.80;34.50;;;;;;5016229;28;19916;-62
2022/03/04 02:41:03;;;;;;;;;;;7.80;34.50;;;;;;5034123;28;19955;-62
2022/03/04 02:43:28;;;;;;;;;;;7.80;34.70;;;;;;5033981;28;19909;-62
2022/03/04 02:45:54;;;;;;;;;;;7.80;34.80;;;;;;5033591;28;19909;-65
2022/03/04 02:48:19;;;;;;;;;;;7.80;34.90;;;;;;5033847;28;19913;-62
2022/03/04 02:50:45;;;;;;;;;;;7.80;35.10;;;;;;5033976;28;20353;-71
2022/03/04 02:53:11;;;;;;;;;;;7.70;35.30;;;;;;5033874;28;19915;-72
2022/03/04 02:55:36;;;;;;;;;;;7.70;35.40;;;;;;5033648;28;20327;-67
2022/03/04 02:58:02;;;;;;;;;;;7.60;35.70;;;;;;5033730;28;19909;-65
2022/03/04 03:00:28;;;;;;;;;;;7.70;35.70;;;;;;5033650;28;19913;-75
2022/03/04 03:02:53;;;;;;;;;;;7.60;35.90;;;;;;5033897;28;19909;-69
2022/03/04 03:05:20;;;;;;;;;;;7.60;36.00;;;;;;5033752;28;19999;-61
2022/03/04 03:07:45;;;;;;;;;;;7.50;36.50;;;;;;5033659;28;19917;-62
2022/03/04 03:10:11;;;;;;;;;;;7.50;36.40;;;;;;5033852;28;19909;-62
2022/03/04 03:12:37;;;;;;;;;;;7.60;36.40;;;;;;5034002;28;19916;-62
2022/03/04 03:15:03;;;;;;;;;;;7.60;36.10;;;;;;5037199;28;20006;-62
2022/03/04 03:17:29;;;;;;;;;;;7.60;35.80;;;;;;5037475;28;19917;-62
2022/03/04 03:19:55;;;;;;;;;;;7.60;35.90;;;;;;5037048;28;19913;-62
2022/03/04 03:22:20;;;;;;;;;;;7.60;35.70;;;;;;5036917;28;19947;-62
2022/03/04 03:24:46;;;;;;;;;;;7.40;36.00;;;;;;5033821;28;19963;-62
2022/03/04 03:27:12;;;;;;;;;;;7.40;36.40;;;;;;5033756;28;19909;-62
2022/03/04 03:29:37;;;;;;;;;;;7.40;36.10;;;;;;5033630;28;20309;-63
2022/03/04 03:32:03;;;;;;;;;;;7.60;35.90;;;;;;5033442;28;20004;-69
2022/03/04 03:34:29;;;;;;;;;;;7.60;35.50;;;;;;5033530;28;20368;-61
2022/03/04 03:36:54;;;;;;;;;;;7.50;35.60;;;;;;5033344;28;20360;-62
2022/03/04 03:39:20;;;;;;;;;;;7.40;35.80;;;;;;5036633;28;19948;-64
2022/03/04 03:41:46;;;;;;;;;;;7.40;36.00;;;;;;5036991;28;19913;-62
2022/03/04 03:44:11;;;;;;;;;;;7.40;35.60;;;;;;5036814;28;19932;-62
2022/03/04 03:46:37;;;;;;;;;;;7.40;35.70;;;;;;5037005;28;19909;-62
2022/03/04 03:49:02;;;;;;;;;;;7.40;35.80;;;;;;5037000;28;20010;-62
2022/03/04 03:51:28;;;;;;;;;;;7.40;35.70;;;;;;5036897;28;20016;-62
2022/03/04 03:53:53;;;;;;;;;;;7.40;35.60;;;;;;5019068;28;20342;-62
2022/03/04 03:56:19;;;;;;;;;;;7.20;35.90;;;;;;5036712;28;20012;-62
2022/03/04 03:58:45;;;;;;;;;;;7.20;36.40;;;;;;5036531;28;19913;-62
2022/03/04 04:01:10;;;;;;;;;;;7.30;36.90;;;;;;5036864;28;19913;-62
2022/03/04 04:03:36;;;;;;;;;;;7.30;35.90;;;;;;5036848;28;19909;-62
2022/03/04 04:06:02;;;;;;;;;;;7.20;35.80;;;;;;5036638;28;20428;-66
2022/03/04 04:08:28;;;;;;;;;;;7.10;36.20;;;;;;5036453;28;20357;-73
2022/03/04 04:10:53;;;;;;;;;;;7.10;36.40;;;;;;5036548;28;19916;-75
2022/03/04 04:13:19;;;;;;;;;;;7.20;36.30;;;;;;5036488;28;19909;-67
2022/03/04 04:15:45;;;;;;;;;;;7.20;35.90;;;;;;5036052;28;20380;-70
2022/03/04 04:18:10;;;;;;;;;;;7.20;36.10;;;;;;5036429;28;19921;-62
2022/03/04 04:20:36;;;;;;;;;;;7.00;36.40;;;;;;5036446;28;19917;-62
2022/03/04 04:23:02;;;;;;;;;;;7.10;36.30;;;;;;5036431;28;19916;-62
2022/03/04 04:25:27;;;;;;;;;;;7.00;36.50;;;;;;5036224;28;20330;-62
2022/03/04 04:27:53;;;;;;;;;;;7.10;36.30;;;;;;5036127;28;19909;-62
2022/03/04 04:30:19;;;;;;;;;;;7.00;36.50;;;;;;5036083;28;19910;-61
2022/03/04 04:32:44;;;;;;;;;;;7.00;36.50;;;;;;5036044;28;19910;-62
2022/03/04 04:35:10;;;;;;;;;;;6.80;37.10;;;;;;5036009;28;20265;-62
2022/03/04 04:37:35;;;;;;;;;;;6.70;36.80;;;;;;5036047;28;19913;-62
2022/03/04 04:40:01;;;;;;;;;;;6.50;37.30;;;;;;5035946;28;20376;-61
2022/03/04 04:42:27;;;;;;;;;;;6.30;37.90;;;;;;5035768;28;19909;-62
2022/03/04 04:44:52;;;;;;;;;;;6.40;37.90;;;;;;5035863;28;20001;-61
2022/03/04 04:47:18;;;;;;;;;;;6.50;37.80;;;;;;5036341;28;19917;-61
2022/03/04 04:49:44;;;;;;;;;;;6.50;37.70;;;;;;5035282;28;19909;-61
2022/03/04 04:52:09;;;;;;;;;;;6.60;37.70;;;;;;5017932;28;19970;-62
2022/03/04 04:54:35;;;;;;;;;;;6.70;37.50;;;;;;5035752;28;20084;-62
2022/03/04 04:57:01;;;;;;;;;;;6.70;37.90;;;;;;5035614;28;19948;-62
2022/03/04 04:59:27;;;;;;;;;;;6.80;37.50;;;;;;5035658;28;20219;-61
2022/03/04 05:01:52;;;;;;;;;;;6.70;37.80;;;;;;5035746;28;19909;-62
2022/03/04 05:04:18;;;;;;;;;;;6.70;37.60;;;;;;5035482;28;20002;-62
2022/03/04 05:06:43;;;;;;;;;;;6.50;37.40;;;;;;5035484;28;20280;-61
2022/03/04 05:09:09;;;;;;;;;;;6.60;37.70;;;;;;5035590;28;20376;-62
2022/03/04 05:11:34;;;;;;;;;;;6.50;37.70;;;;;;5035542;28;19971;-61
2022/03/04 05:14:00;;;;;;;;;;;6.50;37.80;;;;;;5035358;28;19944;-62
2022/03/04 05:16:26;;;;;;;;;;;6.50;37.70;;;;;;5035293;28;19918;-64
2022/03/04 05:18:52;;;;;;;;;;;6.50;38.00;;;;;;5035156;28;20316;-61
2022/03/04 05:21:17;;;;;;;;;;;6.40;38.00;;;;;;5035428;28;19994;-61
2022/03/04 05:24:02;;;;;;;;;;;6.40;38.10;;;;;;5035045;28;19916;-62
2022/03/04 05:26:35;;;;;;;;;;;6.50;37.90;;;;;;5034813;28;20380;-61
2022/03/04 05:29:01;;;;;;;;;;;6.50;37.70;;;;;;5035144;28;19963;-61
2022/03/04 05:31:27;;;;;;;;;;;6.50;37.90;;;;;;5034948;28;19909;-61
2022/03/04 05:33:53;;;;;;;;;;;6.50;37.90;;;;;;5017272;28;19916;-64
2022/03/04 05:36:19;;;;;;;;;;;6.50;37.90;;;;;;5017271;28;19917;-62
2022/03/04 05:38:45;;;;;;;;;;;6.50;38.00;;;;;;5034604;28;19917;-61
2022/03/04 05:41:11;;;;;;;;;;;6.40;37.90;;;;;;5034817;28;19909;-63
2022/03/04 05:43:38;;;;;;;;;;;6.30;38.10;;;;;;5035093;28;19909;-61
2022/03/04 05:46:04;;;;;;;;;;;6.20;38.00;;;;;;5034603;28;20079;-61
2022/03/04 05:48:29;;;;;;;;;;;6.30;37.90;;;;;;5034654;28;20363;-63
2022/03/04 05:50:55;;;;;;;;;;;6.30;38.00;;;;;;5034698;28;19967;-61
2022/03/04 05:53:20;;;;;;;;;;;6.20;37.90;;;;;;5034506;28;20008;-62
2022/03/04 05:55:47;;;;;;;;;;;6.20;38.10;;;;;;5034397;28;19918;-61
2022/03/04 05:58:12;;;;;;;;;;;6.20;38.20;;;;;;5034547;28;19952;-61
2022/03/04 06:00:38;;;;;;;;;;;6.20;38.10;;;;;;5034604;28;19909;-61
2022/03/04 06:03:04;;;;;;;;;;;6.20;38.00;;;;;;5034038;28;20000;-62
2022/03/04 06:05:29;;;;;;;;;;;6.20;38.10;;;;;;5034296;28;19971;-61
2022/03/04 06:07:55;;;;;;;;;;;6.20;38.20;;;;;;5034473;28;19920;-63
2022/03/04 06:10:20;;;;;;;;;;;6.10;38.50;;;;;;5034493;28;20015;-62
2022/03/04 06:12:46;;;;;;;;;;;6.10;38.50;;;;;;5034536;28;19909;-62
2022/03/04 06:15:12;;;;;;;;;;;6.10;38.70;;;;;;5033915;28;19936;-61
2022/03/04 06:17:37;;;;;;;;;;;6.10;39.00;;;;;;5033943;28;19914;-61
2022/03/04 06:20:03;;;;;;;;;;;6.10;38.80;;;;;;5034321;28;20314;-61
2022/03/04 06:22:29;;;;;;;;;;;6.10;38.80;;;;;;5034106;28;19909;-61
2022/03/04 06:24:54;;;;;;;;;;;6.20;38.80;;;;;;5034245;28;20385;-61
2022/03/04 06:27:20;;;;;;;;;;;6.10;38.80;;;;;;5034206;28;20008;-61
2022/03/04 06:29:45;;;;;;;;;;;6.10;38.80;;;;;;5034494;28;20360;-62
2022/03/04 06:32:13;;;;;;;;;;;6.10;38.60;;;;;;5033984;28;19913;-61
2022/03/04 06:34:39;;;;;;;;;;;6.10;38.60;;;;;;5033855;28;19932;-61
2022/03/04 06:37:04;;;;;;;;;;;6.30;38.60;;;;;;5034160;28;20357;-62
2022/03/04 06:39:30;;;;;;;;;;;6.30;38.50;;;;;;5033854;28;19949;-61
2022/03/04 06:41:56;;;;;;;;;;;6.20;38.70;;;;;;5033820;28;19916;-61
2022/03/04 06:44:21;;;;;;;;;;;6.20;38.70;;;;;;5033874;28;20348;-62
2022/03/04 06:46:47;;;;;;;;;;;6.10;38.80;;;;;;5033926;28;19955;-62
2022/03/04 06:49:13;;;;;;;;;;;6.20;39.40;;;;;;5033804;28;19999;-61
2022/03/04 06:51:39;;;;;;;;;;;6.20;39.10;;;;;;5034032;28;20250;-63
2022/03/04 06:54:04;;;;;;;;;;;6.30;39.10;;;;;;5033956;28;19964;-62
2022/03/04 06:56:30;;;;;;;;;;;6.30;39.20;;;;;;5033473;28;20365;-62
2022/03/04 06:58:56;;;;;;;;;;;6.10;39.30;;;;;;5033722;28;19916;-63
2022/03/04 07:01:21;;;;;;;;;;;6.20;39.30;;;;;;5033650;28;20008;-61
2022/03/04 07:03:47;;;;;;;;;;;6.50;43.30;;;;;;5031380;28;19940;-58
2022/03/04 07:06:13;;;;;;;;;;;7.10;48.60;;;;;;5029763;28;20272;-58
2022/03/04 07:08:39;;;;;;;;;;;7.60;41.50;;;;;;5033095;28;19913;-62
2022/03/04 07:11:04;;;;;;;;;;;7.90;43.60;;;;;;5033727;28;20353;-62
2022/03/04 07:13:30;;;;;;;;;;;8.10;37.70;;;;;;5035801;28;20060;-59
2022/03/04 07:15:55;;;;;;;;;;;8.30;38.00;;;;;;5037544;28;19924;-59
2022/03/04 07:18:23;;;;;;;;;;;8.50;37.00;;;;;;5037022;28;19925;-59
2022/03/04 07:20:49;;;;;;;;;;;9.00;41.40;;;;;;5037373;28;19920;-62
2022/03/04 07:23:15;;;;;;;;;;;9.30;37.50;;;;;;5037132;28;19964;-58
2022/03/04 07:25:41;;;;;;;;;;;9.60;35.10;;;;;;5037261;28;20277;-59
2022/03/04 07:28:07;;;;;;;;;;;9.00;33.20;;;;;;5019139;28;19909;-58
2022/03/04 07:30:33;;;;;;;;;;;8.90;33.80;;;;;;5037203;28;19917;-60
2022/03/04 07:32:59;;;;;;;;;;;8.90;34.40;;;;;;5036998;28;19909;-61
2022/03/04 07:35:24;;;;;;;;;;;8.70;34.40;;;;;;5036578;28;19984;-61
2022/03/04 07:37:50;;;;;;;;;;;8.70;34.60;;;;;;5033310;28;20369;-64
2022/03/04 07:40:15;;;;;;;;;;;8.70;34.40;;;;;;5030135;28;19909;-59
2022/03/04 07:42:42;;;;;;;;;;;8.80;34.00;;;;;;5031723;28;19979;-61
2022/03/04 07:45:08;;;;;;;;;;;8.80;33.60;;;;;;5031594;28;19932;-62
2022/03/04 07:47:35;;;;;;;;;;;8.70;33.30;;;;;;5029734;28;19913;-60
2022/03/04 07:50:00;;;;;;;;;;;8.70;32.90;;;;;;5017888;28;19963;-60
2022/03/04 07:52:31;;;;;;;;;;;8.70;33.20;;;;;;5029774;28;20396;-60
2022/03/04 07:54:58;;;;;;;;;;;8.70;33.10;;;;;;5031278;28;20059;-59
2022/03/04 07:57:23;;;;;;;;;;;8.70;33.60;;;;;;5036726;28;19909;-59
2022/03/04 07:59:49;;;;;;;;;;;8.70;33.10;;;;;;5036695;28;19916;-59
2022/03/04 08:02:15;;;;;;;;;;;8.80;33.20;;;;;;5036533;28;19917;-61
2022/03/04 08:04:40;;;;;;;;;;;8.90;33.20;;;;;;5036653;28;20357;-61
2022/03/04 08:07:06;;;;;;;;;;;8.90;32.80;;;;;;5036280;28;20280;-61
2022/03/04 08:09:31;;;;;;;;;;;9.00;33.30;;;;;;5036871;28;19909;-70
2022/03/04 08:11:57;;;;;;;;;;;9.10;32.70;;;;;;5036648;28;19912;-60
2022/03/04 08:14:24;;;;;;;;;;;9.10;32.80;;;;;;5036454;28;20008;-71
2022/03/04 08:16:49;;;;;;;;;;;9.10;32.90;;;;;;5018609;28;20011;-61
2022/03/04 08:19:15;;;;;;;;;;;9.30;32.70;;;;;;5036252;28;20333;-63
2022/03/04 08:21:40;;;;;;;;;;;9.30;32.20;;;;;;5036314;28;19913;-65
2022/03/04 08:24:06;;;;;;;;;;;9.30;33.00;;;;;;5032637;28;19910;-59
2022/03/04 08:26:32;;;;;;;;;;;9.40;33.10;;;;;;5031284;28;19909;-60
2022/03/04 08:28:57;;;;;;;;;;;9.50;32.50;;;;;;5030135;28;20379;-58
2022/03/04 08:31:23;;;;;;;;;;;9.50;33.00;;;;;;5031183;28;19909;-59
2022/03/04 08:33:48;;;;;;;;;;;9.60;33.30;;;;;;5031790;28;19909;-67
2022/03/04 08:36:14;;;;;;;;;;;9.60;32.30;;;;;;5029522;28;20067;-61
2022/03/04 08:38:40;;;;;;;;;;;9.80;32.30;;;;;;5031364;28;19910;-62
2022/03/04 08:41:06;;;;;;;;;;;10.10;37.30;;;;;;5031204;28;19952;-59
2022/03/04 08:43:34;;;;;;;;;;;10.00;31.50;;;;;;5029590;28;20387;-67
2022/03/04 08:46:00;;;;;;;;;;;10.00;31.60;;;;;;5030094;28;19917;-67
2022/03/04 08:48:26;;;;;;;;;;;9.80;31.60;;;;;;5033421;28;20365;-74
2022/03/04 08:50:51;;;;;;;;;;;9.70;31.50;;;;;;5036198;28;19913;-74
2022/03/04 08:53:17;;;;;;;;;;;9.70;31.80;;;;;;5035562;28;19909;-63
2022/03/04 08:55:44;;;;;;;;;;;9.80;32.00;;;;;;5035566;28;19920;-71
2022/03/04 08:58:10;;;;;;;;;;;10.00;32.00;;;;;;5035679;28;19915;-62
2022/03/04 09:00:36;;;;;;;;;;;10.10;31.30;;;;;;5035783;28;19999;-64
2022/03/04 09:03:02;;;;;;;;;;;10.10;31.10;;;;;;5036170;28;19995;-66
2022/03/04 09:05:27;;;;;;;;;;;10.10;31.50;;;;;;5048443;28;19913;-61
2022/03/04 09:07:54;;;;;;;;;;;10.00;31.50;;;;;;5045394;28;19909;-62
2022/03/04 09:10:20;;;;;;;;;;;10.20;31.60;;;;;;5046707;28;19932;-66
2022/03/04 09:12:45;;;;;;;;;;;10.30;32.10;;;;;;5032515;28;19917;-65
2022/03/04 09:15:11;;;;;;;;;;;10.30;31.30;;;;;;5026260;28;20299;-67
2022/03/04 09:17:37;;;;;;;;;;;10.30;31.20;;;;;;5034752;28;19913;-60
2022/03/04 09:20:03;;;;;;;;;;;10.30;31.90;;;;;;5035413;28;19913;-59
2022/03/04 09:22:28;;;;;;;;;;;10.40;31.90;;;;;;5017485;28;20329;-62
2022/03/04 09:24:54;;;;;;;;;;;10.60;31.30;;;;;;5035211;28;19952;-60
2022/03/04 09:27:19;;;;;;;;;;;10.60;31.20;;;;;;5035093;28;19913;-62
2022/03/04 09:29:48;;;;;;;;;;;10.50;30.70;;;;;;5035281;28;20448;-59
2022/03/04 09:32:13;;;;;;;;;;;10.60;31.70;;;;;;5034121;28;19913;-59
2022/03/04 09:34:39;;;;;;;;;;;10.70;31.10;;;;;;5016772;28;19916;-58
2022/03/04 09:37:05;;;;;;;;;;;10.80;31.40;;;;;;5034485;28;20261;-62
2022/03/04 09:39:30;;;;;;;;;;;10.90;31.40;;;;;;5034793;28;19909;-59
2022/03/04 09:41:56;;;;;;;;;;;11.00;31.00;;;;;;5034830;28;19931;-59
2022/03/04 09:44:22;;;;;;;;;;;11.00;30.70;;;;;;5034774;28;19917;-60
2022/03/04 09:46:48;;;;;;;;;;;11.20;30.80;;;;;;5034567;28;20264;-67
2022/03/04 09:49:15;;;;;;;;;;;11.30;30.30;;;;;;5034533;28;19913;-60
2022/03/04 09:51:40;;;;;;;;;;;11.40;30.10;;;;;;5034517;28;19909;-59
2022/03/04 09:54:06;;;;;;;;;;;11.50;29.90;;;;;;5035267;28;19909;-62
2022/03/04 09:56:32;;;;;;;;;;;11.30;29.40;;;;;;5038701;28;19917;-60
2022/03/04 09:58:57;;;;;;;;;;;11.20;30.00;;;;;;5039060;28;19931;-69
2022/03/04 10:01:23;;;;;;;;;;;11.10;29.90;;;;;;5038561;28;20389;-63
2022/03/04 10:03:50;;;;;;;;;;;11.00;29.80;;;;;;5038595;28;19962;-60
2022/03/04 10:06:16;;;;;;;;;;;11.10;30.20;;;;;;5035096;28;19952;-59
2022/03/04 10:08:43;;;;;;;;;;;11.10;30.10;;;;;;5016496;28;19909;-58
2022/03/04 10:11:10;;;;;;;;;;;11.10;29.40;;;;;;5034277;28;19913;-57
2022/03/04 10:13:41;;;;;;;;;;;11.20;29.80;;;;;;5033803;28;19920;-59
2022/03/04 10:16:07;;;;;;;;;;;11.30;29.40;;;;;;5034020;28;19923;-57
2022/03/04 10:18:33;;;;;;;;;;;11.10;28.60;;;;;;5034208;28;20356;-59
2022/03/04 10:20:58;;;;;;;;;;;11.00;29.10;;;;;;5034370;28;19915;-59
2022/03/04 10:23:24;;;;;;;;;;;11.10;29.40;;;;;;5032751;28;20300;-58
2022/03/04 10:25:51;;;;;;;;;;;11.20;29.30;;;;;;5029598;28;20329;-66
2022/03/04 10:28:17;;;;;;;;;;;11.30;28.90;;;;;;5029796;28;19995;-59
2022/03/04 10:30:47;;;;;;;;;;;11.20;28.60;;;;;;5027700;28;19945;-62
2022/03/04 10:33:17;;;;;;;;;;;11.20;28.40;;;;;;5024615;28;19913;-61
2022/03/04 10:35:44;;;;;;;;;;;11.40;28.60;;;;;;5025667;28;19939;-59
2022/03/04 10:38:24;;;;;;;;;;;11.40;28.10;;;;;;5029751;28;19964;-59
2022/03/04 10:40:50;;;;;;;;;;;11.40;28.10;;;;;;5021345;28;19949;-59
2022/03/04 10:43:23;;;;;;;;;;;11.50;27.10;;;;;;5028920;28;20297;-63
2022/03/04 10:45:57;;;;;;;;;;;11.60;27.20;;;;;;5029392;28;19909;-59
2022/03/04 10:48:23;;;;;;;;;;;11.80;27.10;;;;;;5020219;28;20392;-59
2022/03/04 10:50:49;;;;;;;;;;;11.90;26.70;;;;;;5033046;28;19956;-59
2022/03/04 10:53:24;;;;;;;;;;;11.80;25.70;;;;;;5032986;28;19916;-58
2022/03/04 10:55:51;;;;;;;;;;;11.60;25.60;;;;;;5032712;28;20332;-59
2022/03/04 10:58:19;;;;;;;;;;;11.60;26.00;;;;;;5033185;28;19909;-66
2022/03/04 11:00:49;;;;;;;;;;;11.80;26.10;;;;;;5033396;28;19909;-58
2022/03/04 11:03:17;;;;;;;;;;;12.00;25.90;;;;;;5030763;28;19999;-58
2022/03/04 11:05:43;;;;;;;;;;;11.90;25.90;;;;;;5032997;28;19909;-59
2022/03/04 11:08:09;;;;;;;;;;;12.10;25.10;;;;;;5032859;28;19932;-60
2022/03/04 11:10:35;;;;;;;;;;;12.00;24.20;;;;;;5032942;28;19963;-59
2022/03/04 11:13:03;;;;;;;;;;;11.90;24.90;;;;;;5032720;28;19917;-59
2022/03/04 11:15:29;;;;;;;;;;;12.10;24.40;;;;;;5032677;28;19928;-61
2022/03/04 11:17:55;;;;;;;;;;;12.30;24.20;;;;;;5032658;28;20292;-64
2022/03/04 11:20:20;;;;;;;;;;;12.40;24.60;;;;;;5032907;28;19996;-63
2022/03/04 11:22:47;;;;;;;;;;;12.50;24.60;;;;;;5032800;28;19964;-60
2022/03/04 11:25:14;;;;;;;;;;;12.30;24.40;;;;;;5032586;28;19991;-63
2022/03/04 11:27:50;;;;;;;;;;;12.40;23.80;;;;;;5008099;28;19932;-59
2022/03/04 11:30:30;;;;;;;;;;;12.60;24.20;;;;;;5030347;28;19909;-61
2022/03/04 11:32:59;;;;;;;;;;;12.70;24.10;;;;;;5030169;28;20395;-60
2022/03/04 11:35:35;;;;;;;;;;;12.90;23.30;;;;;;5032322;28;19917;-60
2022/03/04 11:38:00;;;;;;;;;;;12.80;22.90;;;;;;5030788;28;19951;-60
2022/03/04 11:40:35;;;;;;;;;;;12.70;23.60;;;;;;5032529;28;19909;-61
2022/03/04 11:43:02;;;;;;;;;;;12.70;23.90;;;;;;5030741;28;19917;-62
2022/03/04 11:45:34;;;;;;;;;;;12.70;23.80;;;;;;5033276;28;19910;-64
2022/03/04 11:48:04;;;;;;;;;;;12.80;24.20;;;;;;5033002;28;19916;-65
2022/03/04 11:50:32;;;;;;;;;;;12.60;23.30;;;;;;5027378;28;20328;-63
2022/03/04 11:53:20;;;;;;;;;;;12.80;23.40;;;;;;5013214;28;19909;-68
2022/03/04 11:56:12;;;;;;;;;;;13.00;23.50;;;;;;5002389;28;20354;-64
2022/03/04 11:58:56;;;;;;;;;;;13.00;23.50;;;;;;5012814;28;19909;-64
2022/03/04 12:01:28;;;;;;;;;;;12.90;23.30;;;;;;5016132;28;19913;-62
2022/03/04 12:04:10;;;;;;;;;;;12.80;23.20;;;;;;5016631;28;19909;-66
2022/03/04 12:06:36;;;;;;;;;;;12.90;22.70;;;;;;5016151;28;19972;-62
2022/03/04 12:09:20;;;;;;;;;;;13.00;22.90;;;;;;5016429;28;20361;-62
2022/03/04 12:12:04;;;;;;;;;;;12.90;23.00;;;;;;5016221;28;19985;-63
2022/03/04 12:14:29;;;;;;;;;;;12.80;23.30;;;;;;5016101;28;20309;-62
2022/03/04 12:16:56;;;;;;;;;;;12.60;22.40;;;;;;5015916;28;19918;-62
2022/03/04 12:19:33;;;;;;;;;;;12.40;22.40;;;;;;5016014;28;19933;-67
2022/03/04 12:21:59;;;;;;;;;;;12.40;23.10;;;;;;5016020;28;19950;-67
2022/03/04 12:24:28;;;;;;;;;;;12.60;22.90;;;;;;5015833;28;20009;-67
2022/03/04 12:26:54;;;;;;;;;;;12.60;22.20;;;;;;5015877;28;19917;-65
2022/03/04 12:29:21;;;;;;;;;;;12.50;22.30;;;;;;5016085;28;19909;-61
2022/03/04 12:31:48;;;;;;;;;;;12.50;22.60;;;;;;5015610;28;19913;-62
2022/03/04 12:34:16;;;;;;;;;;;12.40;22.60;;;;;;5015517;28;19936;-63
2022/03/04 12:36:42;;;;;;;;;;;12.40;21.80;;;;;;5015549;28;20381;-63
2022/03/04 12:39:08;;;;;;;;;;;12.30;21.80;;;;;;5015786;28;19909;-63
2022/03/04 12:41:34;;;;;;;;;;;12.20;21.40;;;;;;5015589;28;20424;-65
2022/03/04 12:44:00;;;;;;;;;;;12.20;22.00;;;;;;5015537;28;20346;-63
2022/03/04 12:46:27;;;;;;;;;;;12.50;21.80;;;;;;5015508;28;19944;-62
2022/03/04 12:48:53;;;;;;;;;;;12.50;21.40;;;;;;5015432;28;19917;-62
2022/03/04 12:51:22;;;;;;;;;;;12.10;21.20;;;;;;5033360;28;19916;-63
2022/03/04 12:53:48;;;;;;;;;;;12.00;22.20;;;;;;5034774;28;20479;-60
2022/03/04 12:56:14;;;;;;;;;;;11.90;22.70;;;;;;5034429;28;19917;-64
2022/03/04 12:58:40;;;;;;;;;;;12.10;22.90;;;;;;5034471;28;19979;-64
2022/03/04 13:01:07;;;;;;;;;;;12.30;21.40;;;;;;5034382;28;20429;-63
2022/03/04 13:03:33;;;;;;;;;;;12.40;22.10;;;;;;5034329;28;19924;-63
2022/03/04 13:05:59;;;;;;;;;;;12.30;21.70;;;;;;5033972;28;19913;-63
2022/03/04 13:08:24;;;;;;;;;;;12.20;21.70;;;;;;5034575;28;20469;-63
2022/03/04 13:10:50;;;;;;;;;;;12.10;21.50;;;;;;5033750;28;20011;-64
2022/03/04 13:13:16;;;;;;;;;;;12.20;22.90;;;;;;5034180;28;19913;-63
2022/03/04 13:15:46;;;;;;;;;;;12.30;22.70;;;;;;5033953;28;19964;-66
2022/03/04 13:18:11;;;;;;;;;;;12.20;22.10;;;;;;5034054;28;19925;-59
2022/03/04 13:20:37;;;;;;;;;;;12.30;22.50;;;;;;5033992;28;19920;-61
2022/03/04 13:23:06;;;;;;;;;;;12.30;22.00;;;;;;5034201;28;20355;-72
2022/03/04 13:25:32;;;;;;;;;;;12.30;22.10;;;;;;5034099;28;19913;-64
2022/03/04 13:27:58;;;;;;;;;;;12.30;22.20;;;;;;5033651;28;19909;-64
2022/03/04 13:30:24;;;;;;;;;;;12.30;21.80;;;;;;5034243;28;20262;-64
2022/03/04 13:32:54;;;;;;;;;;;12.20;22.10;;;;;;5033834;28;20285;-65
2022/03/04 13:35:21;;;;;;;;;;;12.10;22.60;;;;;;5033658;28;20004;-66
2022/03/04 13:37:47;;;;;;;;;;;12.30;22.80;;;;;;5033749;28;19920;-64
2022/03/04 13:40:16;;;;;;;;;;;12.30;22.00;;;;;;5033821;28;19917;-63
2022/03/04 13:42:50;;;;;;;;;;;12.30;21.50;;;;;;5031416;28;19909;-64
2022/03/04 13:45:26;;;;;;;;;;;12.20;21.90;;;;;;5033342;28;19909;-65
2022/03/04 13:47:56;;;;;;;;;;;12.30;22.10;;;;;;5032859;28;19913;-63
2022/03/04 13:50:24;;;;;;;;;;;12.30;22.10;;;;;;5032206;28;20332;-63
2022/03/04 13:52:54;;;;;;;;;;;12.00;22.60;;;;;;5033130;28;20281;-61
2022/03/04 13:55:28;;;;;;;;;;;12.00;22.10;;;;;;5033747;28;19913;-63
2022/03/04 13:57:58;;;;;;;;;;;12.10;22.20;;;;;;5034101;28;19920;-63
2022/03/04 14:00:31;;;;;;;;;;;12.00;22.30;;;;;;5033662;28;19910;-63
2022/03/04 14:03:02;;;;;;;;;;;11.90;22.00;;;;;;5033886;28;20393;-62
2022/03/04 14:05:28;;;;;;;;;;;11.80;22.60;;;;;;5033867;28;20377;-62
2022/03/04 14:08:05;;;;;;;;;;;11.90;22.60;;;;;;5032681;28;19971;-62
2022/03/04 14:10:31;;;;;;;;;;;12.10;22.60;;;;;;5023882;28;20294;-63
2022/03/04 14:12:57;;;;;;;;;;;12.20;22.70;;;;;;5028462;28;19914;-60
2022/03/04 14:15:23;;;;;;;;;;;12.10;22.40;;;;;;5032572;28;20347;-60
2022/03/04 14:17:51;;;;;;;;;;;12.10;22.60;;;;;;5027977;28;20284;-61
2022/03/04 14:20:17;;;;;;;;;;;12.30;23.20;;;;;;5030190;28;20288;-59
2022/03/04 14:22:42;;;;;;;;;;;12.30;22.50;;;;;;5030031;28;19913;-63